sensor_id;sensor_type;location;lat;lon;timestamp;pressure;altitude;pressure_sealevel;temperature;humidity
9935;BME280;5006;41.828;23.478;2022-08-19T00:00:44;90332.84;;;21.24;68.66
9935;BME280;5006;41.828;23.478;2022-08-19T00:01:51;90341.56;;;21.40;67.21
9935;BME280;5006;41.828;23.478;2022-08-19T00:02:57;90334.28;;;21.37;67.65
9935;BME280;5006;41.828;23.478;2022-08-19T00:04:05;90336.34;;;21.24;68.09
9935;BME280;5006;41.828;23.478;2022-08-19T00:05:12;90340.25;;;21.14;67.76
9935;BME280;5006;41.828;23.478;2022-08-19T00:06:17;90337.97;;;21.04;68.66
9935;BME280;5006;41.828;23.478;2022-08-19T00:07:23;90330.25;;;21.11;68.46
9935;BME280;5006;41.828;23.478;2022-08-19T00:08:28;90334.94;;;21.11;68.69
9935;BME280;5006;41.828;23.478;2022-08-19T00:09:34;90339.19;;;21.03;68.42
9935;BME280;5006;41.828;23.478;2022-08-19T00:10:38;90334.78;;;21.05;68.44
9935;BME280;5006;41.828;23.478;2022-08-19T00:11:45;90340.38;;;21.02;68.76
9935;BME280;5006;41.828;23.478;2022-08-19T00:12:50;90333.44;;;20.79;70.69
9935;BME280;5006;41.828;23.478;2022-08-19T00:13:57;90327.94;;;20.70;70.74
9935;BME280;5006;41.828;23.478;2022-08-19T00:15:04;90327.66;;;20.77;70.14
9935;BME280;5006;41.828;23.478;2022-08-19T00:16:10;90321.78;;;20.79;69.90
9935;BME280;5006;41.828;23.478;2022-08-19T00:17:15;90321.59;;;20.73;71.12
9935;BME280;5006;41.828;23.478;2022-08-19T00:18:21;90315.38;;;20.73;71.99
9935;BME280;5006;41.828;23.478;2022-08-19T00:19:26;90321.41;;;20.68;72.97
9935;BME280;5006;41.828;23.478;2022-08-19T00:20:32;90321.53;;;20.64;72.71
9935;BME280;5006;41.828;23.478;2022-08-19T00:21:37;90316.69;;;20.59;73.73
9935;BME280;5006;41.828;23.478;2022-08-19T00:22:44;90318.44;;;20.44;74.79
9935;BME280;5006;41.828;23.478;2022-08-19T00:23:49;90326.00;;;20.49;75.04
9935;BME280;5006;41.828;23.478;2022-08-19T00:24:55;90317.84;;;20.49;73.47
9935;BME280;5006;41.828;23.478;2022-08-19T00:26:01;90317.59;;;20.35;74.71
9935;BME280;5006;41.828;23.478;2022-08-19T00:27:06;90299.88;;;20.30;75.72
9935;BME280;5006;41.828;23.478;2022-08-19T00:28:12;90306.97;;;20.28;76.05
9935;BME280;5006;41.828;23.478;2022-08-19T00:29:20;90299.31;;;20.35;75.83
9935;BME280;5006;41.828;23.478;2022-08-19T00:30:26;90303.28;;;20.43;74.91
9935;BME280;5006;41.828;23.478;2022-08-19T00:31:32;90306.84;;;20.31;75.58
9935;BME280;5006;41.828;23.478;2022-08-19T00:32:39;90297.84;;;20.22;76.98
9935;BME280;5006;41.828;23.478;2022-08-19T00:33:43;90299.75;;;20.34;75.54
9935;BME280;5006;41.828;23.478;2022-08-19T00:34:49;90299.19;;;20.39;74.76
9935;BME280;5006;41.828;23.478;2022-08-19T00:35:56;90294.16;;;20.37;74.69
9935;BME280;5006;41.828;23.478;2022-08-19T00:37:03;90294.25;;;20.03;77.81
9935;BME280;5006;41.828;23.478;2022-08-19T00:38:08;90296.47;;;20.17;76.79
9935;BME280;5006;41.828;23.478;2022-08-19T00:39:15;90290.28;;;20.17;75.87
9935;BME280;5006;41.828;23.478;2022-08-19T00:40:21;90297.72;;;20.25;75.67
9935;BME280;5006;41.828;23.478;2022-08-19T00:41:27;90296.97;;;20.03;78.64
9935;BME280;5006;41.828;23.478;2022-08-19T00:42:32;90302.19;;;20.10;78.81
9935;BME280;5006;41.828;23.478;2022-08-19T00:43:39;90301.28;;;20.13;78.36
9935;BME280;5006;41.828;23.478;2022-08-19T00:44:46;90310.59;;;20.03;78.25
9935;BME280;5006;41.828;23.478;2022-08-19T00:45:52;90308.91;;;20.18;77.86
9935;BME280;5006;41.828;23.478;2022-08-19T00:46:57;90315.09;;;20.19;79.34
9935;BME280;5006;41.828;23.478;2022-08-19T00:48:04;90313.75;;;20.23;78.26
9935;BME280;5006;41.828;23.478;2022-08-19T00:49:12;90318.47;;;19.68;81.73
9935;BME280;5006;41.828;23.478;2022-08-19T00:50:21;90315.28;;;20.03;80.14
9935;BME280;5006;41.828;23.478;2022-08-19T00:51:28;90316.81;;;20.04;79.76
9935;BME280;5006;41.828;23.478;2022-08-19T00:52:37;90314.44;;;19.93;80.19
9935;BME280;5006;41.828;23.478;2022-08-19T00:53:45;90313.06;;;20.10;79.25
9935;BME280;5006;41.828;23.478;2022-08-19T00:54:51;90309.50;;;20.01;79.18
9935;BME280;5006;41.828;23.478;2022-08-19T00:55:59;90302.41;;;20.03;79.08
9935;BME280;5006;41.828;23.478;2022-08-19T00:57:08;90293.38;;;20.06;79.06
9935;BME280;5006;41.828;23.478;2022-08-19T00:58:20;90296.00;;;19.97;79.34
9935;BME280;5006;41.828;23.478;2022-08-19T00:59:27;90290.88;;;19.99;79.55
9935;BME280;5006;41.828;23.478;2022-08-19T01:00:35;90290.19;;;20.08;79.16
9935;BME280;5006;41.828;23.478;2022-08-19T01:01:42;90287.53;;;19.95;80.60
9935;BME280;5006;41.828;23.478;2022-08-19T01:02:49;90278.03;;;20.00;80.00
9935;BME280;5006;41.828;23.478;2022-08-19T01:03:54;90276.97;;;19.97;79.28
9935;BME280;5006;41.828;23.478;2022-08-19T01:05:03;90272.25;;;19.98;79.09
9935;BME280;5006;41.828;23.478;2022-08-19T01:06:09;90272.03;;;20.05;78.56
9935;BME280;5006;41.828;23.478;2022-08-19T01:07:15;90280.41;;;20.10;78.30
9935;BME280;5006;41.828;23.478;2022-08-19T01:08:20;90277.06;;;19.94;80.01
9935;BME280;5006;41.828;23.478;2022-08-19T01:09:26;90277.91;;;20.03;79.38
9935;BME280;5006;41.828;23.478;2022-08-19T01:10:35;90277.97;;;19.91;81.00
9935;BME280;5006;41.828;23.478;2022-08-19T01:11:44;90278.22;;;19.84;80.14
9935;BME280;5006;41.828;23.478;2022-08-19T01:12:49;90280.00;;;19.99;79.37
9935;BME280;5006;41.828;23.478;2022-08-19T01:13:56;90274.66;;;19.96;79.11
9935;BME280;5006;41.828;23.478;2022-08-19T01:15:01;90281.19;;;19.98;78.73
9935;BME280;5006;41.828;23.478;2022-08-19T01:16:10;90287.84;;;19.97;79.82
9935;BME280;5006;41.828;23.478;2022-08-19T01:17:16;90286.66;;;19.77;80.24
9935;BME280;5006;41.828;23.478;2022-08-19T01:18:23;90281.41;;;19.82;79.84
9935;BME280;5006;41.828;23.478;2022-08-19T01:19:33;90280.94;;;19.84;80.67
9935;BME280;5006;41.828;23.478;2022-08-19T01:20:43;90297.25;;;19.84;80.96
9935;BME280;5006;41.828;23.478;2022-08-19T01:21:53;90295.13;;;19.45;84.12
9935;BME280;5006;41.828;23.478;2022-08-19T01:23:01;90306.91;;;19.42;84.90
9935;BME280;5006;41.828;23.478;2022-08-19T01:24:07;90308.25;;;19.59;83.85
9935;BME280;5006;41.828;23.478;2022-08-19T01:25:13;90309.09;;;19.69;82.76
9935;BME280;5006;41.828;23.478;2022-08-19T01:26:23;90312.47;;;19.73;82.55
9935;BME280;5006;41.828;23.478;2022-08-19T01:27:37;90307.69;;;19.43;84.70
9935;BME280;5006;41.828;23.478;2022-08-19T01:28:44;90313.84;;;19.56;84.12
9935;BME280;5006;41.828;23.478;2022-08-19T01:29:51;90321.06;;;19.37;85.87
9935;BME280;5006;41.828;23.478;2022-08-19T01:30:57;90313.38;;;19.23;87.16
9935;BME280;5006;41.828;23.478;2022-08-19T01:32:04;90311.88;;;19.22;87.91
9935;BME280;5006;41.828;23.478;2022-08-19T01:33:09;90311.72;;;19.26;87.63
9935;BME280;5006;41.828;23.478;2022-08-19T01:34:15;90318.47;;;19.21;88.57
9935;BME280;5006;41.828;23.478;2022-08-19T01:35:20;90314.84;;;19.37;87.41
9935;BME280;5006;41.828;23.478;2022-08-19T01:36:30;90317.66;;;19.46;86.91
9935;BME280;5006;41.828;23.478;2022-08-19T01:37:43;90319.06;;;19.50;86.10
9935;BME280;5006;41.828;23.478;2022-08-19T01:38:50;90318.66;;;19.39;85.99
9935;BME280;5006;41.828;23.478;2022-08-19T01:39:56;90307.78;;;19.39;86.54
9935;BME280;5006;41.828;23.478;2022-08-19T01:41:00;90309.53;;;19.33;87.07
9935;BME280;5006;41.828;23.478;2022-08-19T01:42:08;90306.06;;;19.33;87.37
9935;BME280;5006;41.828;23.478;2022-08-19T01:43:15;90304.75;;;19.37;87.25
9935;BME280;5006;41.828;23.478;2022-08-19T01:44:23;90310.19;;;19.37;88.66
9935;BME280;5006;41.828;23.478;2022-08-19T01:45:30;90303.56;;;19.38;87.83
9935;BME280;5006;41.828;23.478;2022-08-19T01:46:38;90307.38;;;19.28;87.32
9935;BME280;5006;41.828;23.478;2022-08-19T01:47:43;90304.44;;;19.35;86.74
9935;BME280;5006;41.828;23.478;2022-08-19T01:48:49;90303.09;;;19.40;86.33
9935;BME280;5006;41.828;23.478;2022-08-19T01:49:53;90302.88;;;19.47;85.46
9935;BME280;5006;41.828;23.478;2022-08-19T01:51:00;90305.19;;;19.36;86.11
9935;BME280;5006;41.828;23.478;2022-08-19T01:52:06;90306.59;;;19.28;87.67
9935;BME280;5006;41.828;23.478;2022-08-19T01:53:11;90301.16;;;19.28;87.47
9935;BME280;5006;41.828;23.478;2022-08-19T01:54:20;90303.72;;;19.22;88.89
9935;BME280;5006;41.828;23.478;2022-08-19T01:55:26;90302.81;;;19.25;87.50
9935;BME280;5006;41.828;23.478;2022-08-19T01:56:32;90299.84;;;19.32;86.90
9935;BME280;5006;41.828;23.478;2022-08-19T01:57:37;90299.66;;;19.27;86.46
9935;BME280;5006;41.828;23.478;2022-08-19T01:58:47;90291.16;;;19.25;87.90
9935;BME280;5006;41.828;23.478;2022-08-19T01:59:55;90297.06;;;19.11;89.29
9935;BME280;5006;41.828;23.478;2022-08-19T02:01:01;90291.94;;;19.13;89.26
9935;BME280;5006;41.828;23.478;2022-08-19T02:02:06;90285.34;;;19.01;90.11
9935;BME280;5006;41.828;23.478;2022-08-19T02:03:13;90290.66;;;19.05;90.40
9935;BME280;5006;41.828;23.478;2022-08-19T02:04:18;90288.59;;;18.96;91.00
9935;BME280;5006;41.828;23.478;2022-08-19T02:05:24;90295.00;;;18.90;92.54
9935;BME280;5006;41.828;23.478;2022-08-19T02:06:29;90294.38;;;18.98;91.93
9935;BME280;5006;41.828;23.478;2022-08-19T02:07:34;90292.84;;;18.97;91.41
9935;BME280;5006;41.828;23.478;2022-08-19T02:08:41;90291.72;;;19.07;91.03
9935;BME280;5006;41.828;23.478;2022-08-19T02:09:47;90290.31;;;19.15;90.23
9935;BME280;5006;41.828;23.478;2022-08-19T02:10:53;90292.81;;;19.10;91.44
9935;BME280;5006;41.828;23.478;2022-08-19T02:11:58;90286.66;;;18.97;93.40
9935;BME280;5006;41.828;23.478;2022-08-19T02:13:04;90287.81;;;19.08;92.00
9935;BME280;5006;41.828;23.478;2022-08-19T02:14:08;90287.38;;;19.10;91.30
9935;BME280;5006;41.828;23.478;2022-08-19T02:15:14;90278.59;;;19.06;91.07
9935;BME280;5006;41.828;23.478;2022-08-19T02:16:20;90277.91;;;19.14;90.99
9935;BME280;5006;41.828;23.478;2022-08-19T02:17:26;90285.53;;;19.07;91.01
9935;BME280;5006;41.828;23.478;2022-08-19T02:18:30;90286.06;;;19.14;90.20
9935;BME280;5006;41.828;23.478;2022-08-19T02:19:37;90293.03;;;19.15;90.20
9935;BME280;5006;41.828;23.478;2022-08-19T02:20:43;90294.81;;;18.72;94.78
9935;BME280;5006;41.828;23.478;2022-08-19T02:21:51;90295.88;;;18.87;95.16
9935;BME280;5006;41.828;23.478;2022-08-19T02:22:55;90304.56;;;18.94;92.80
9935;BME280;5006;41.828;23.478;2022-08-19T02:24:02;90295.88;;;18.87;92.47
9935;BME280;5006;41.828;23.478;2022-08-19T02:25:10;90292.72;;;19.01;91.91
9935;BME280;5006;41.828;23.478;2022-08-19T02:26:16;90298.47;;;19.03;91.19
9935;BME280;5006;41.828;23.478;2022-08-19T02:27:21;90296.09;;;19.05;90.47
9935;BME280;5006;41.828;23.478;2022-08-19T02:28:27;90307.97;;;18.98;89.68
9935;BME280;5006;41.828;23.478;2022-08-19T02:29:32;90285.34;;;19.01;89.87
9935;BME280;5006;41.828;23.478;2022-08-19T02:30:38;90298.50;;;18.90;91.03
9935;BME280;5006;41.828;23.478;2022-08-19T02:31:43;90302.00;;;18.78;94.47
9935;BME280;5006;41.828;23.478;2022-08-19T02:32:48;90293.72;;;18.82;92.95
9935;BME280;5006;41.828;23.478;2022-08-19T02:33:54;90298.72;;;18.83;93.46
9935;BME280;5006;41.828;23.478;2022-08-19T02:35:00;90295.06;;;18.65;93.62
9935;BME280;5006;41.828;23.478;2022-08-19T02:36:07;90297.56;;;18.59;95.36
9935;BME280;5006;41.828;23.478;2022-08-19T02:37:14;90291.78;;;18.70;94.66
9935;BME280;5006;41.828;23.478;2022-08-19T02:38:34;90294.19;;;18.68;94.82
9935;BME280;5006;41.828;23.478;2022-08-19T02:39:41;90297.22;;;18.70;95.17
9935;BME280;5006;41.828;23.478;2022-08-19T02:40:50;90285.78;;;18.75;95.78
9935;BME280;5006;41.828;23.478;2022-08-19T02:41:57;90289.28;;;18.63;95.46
9935;BME280;5006;41.828;23.478;2022-08-19T02:43:05;90292.22;;;18.56;96.58
9935;BME280;5006;41.828;23.478;2022-08-19T02:44:11;90288.06;;;18.64;96.40
9935;BME280;5006;41.828;23.478;2022-08-19T02:45:17;90287.13;;;18.58;96.80
9935;BME280;5006;41.828;23.478;2022-08-19T02:46:25;90289.16;;;18.66;96.27
9935;BME280;5006;41.828;23.478;2022-08-19T02:47:31;90290.47;;;18.74;94.84
9935;BME280;5006;41.828;23.478;2022-08-19T02:48:36;90286.47;;;18.54;96.22
9935;BME280;5006;41.828;23.478;2022-08-19T02:49:42;90287.13;;;18.58;97.00
9935;BME280;5006;41.828;23.478;2022-08-19T02:50:47;90288.00;;;18.55;97.52
9935;BME280;5006;41.828;23.478;2022-08-19T02:51:55;90283.97;;;18.59;96.94
9935;BME280;5006;41.828;23.478;2022-08-19T02:53:00;90292.44;;;18.36;100.00
9935;BME280;5006;41.828;23.478;2022-08-19T02:54:08;90287.75;;;18.37;100.00
9935;BME280;5006;41.828;23.478;2022-08-19T02:55:13;90289.13;;;18.04;100.00
9935;BME280;5006;41.828;23.478;2022-08-19T02:56:21;90286.69;;;18.34;100.00
9935;BME280;5006;41.828;23.478;2022-08-19T02:57:26;90292.84;;;18.35;100.00
9935;BME280;5006;41.828;23.478;2022-08-19T02:58:32;90295.91;;;18.49;100.00
9935;BME280;5006;41.828;23.478;2022-08-19T02:59:36;90292.75;;;18.51;99.13
9935;BME280;5006;41.828;23.478;2022-08-19T03:00:44;90299.06;;;18.48;99.05
9935;BME280;5006;41.828;23.478;2022-08-19T03:01:49;90295.81;;;18.53;98.84
9935;BME280;5006;41.828;23.478;2022-08-19T03:02:55;90296.66;;;18.50;98.87
9935;BME280;5006;41.828;23.478;2022-08-19T03:04:03;90294.31;;;18.52;98.70
9935;BME280;5006;41.828;23.478;2022-08-19T03:05:09;90290.03;;;18.51;98.65
9935;BME280;5006;41.828;23.478;2022-08-19T03:06:16;90287.66;;;18.40;99.76
9935;BME280;5006;41.828;23.478;2022-08-19T03:07:23;90296.91;;;18.43;99.93
9935;BME280;5006;41.828;23.478;2022-08-19T03:08:28;90294.16;;;18.30;100.00
9935;BME280;5006;41.828;23.478;2022-08-19T03:09:36;90297.91;;;18.08;100.00
9935;BME280;5006;41.828;23.478;2022-08-19T03:10:42;90295.81;;;18.28;100.00
9935;BME280;5006;41.828;23.478;2022-08-19T03:11:50;90303.81;;;18.31;100.00
9935;BME280;5006;41.828;23.478;2022-08-19T03:12:55;90301.22;;;18.40;100.00
9935;BME280;5006;41.828;23.478;2022-08-19T03:14:01;90295.56;;;18.35;100.00
9935;BME280;5006;41.828;23.478;2022-08-19T03:15:08;90303.50;;;18.29;100.00
9935;BME280;5006;41.828;23.478;2022-08-19T03:16:14;90303.56;;;18.26;100.00
9935;BME280;5006;41.828;23.478;2022-08-19T03:17:19;90305.84;;;18.27;100.00
9935;BME280;5006;41.828;23.478;2022-08-19T03:18:25;90298.91;;;18.26;100.00
9935;BME280;5006;41.828;23.478;2022-08-19T03:19:30;90309.59;;;18.33;99.87
9935;BME280;5006;41.828;23.478;2022-08-19T03:20:41;90308.25;;;18.25;100.00
9935;BME280;5006;41.828;23.478;2022-08-19T03:21:46;90311.97;;;18.31;100.00
9935;BME280;5006;41.828;23.478;2022-08-19T03:22:52;90320.72;;;18.23;100.00
9935;BME280;5006;41.828;23.478;2022-08-19T03:23:59;90311.22;;;18.31;100.00
9935;BME280;5006;41.828;23.478;2022-08-19T03:25:05;90316.25;;;18.16;100.00
9935;BME280;5006;41.828;23.478;2022-08-19T03:26:11;90314.09;;;18.24;100.00
9935;BME280;5006;41.828;23.478;2022-08-19T03:27:18;90318.28;;;18.28;100.00
9935;BME280;5006;41.828;23.478;2022-08-19T03:28:22;90319.78;;;18.29;100.00
9935;BME280;5006;41.828;23.478;2022-08-19T03:29:29;90319.53;;;18.24;100.00
9935;BME280;5006;41.828;23.478;2022-08-19T03:30:36;90320.72;;;18.23;100.00
9935;BME280;5006;41.828;23.478;2022-08-19T03:31:43;90322.56;;;18.13;100.00
9935;BME280;5006;41.828;23.478;2022-08-19T03:32:48;90319.44;;;18.15;100.00
9935;BME280;5006;41.828;23.478;2022-08-19T03:33:54;90321.03;;;18.12;100.00
9935;BME280;5006;41.828;23.478;2022-08-19T03:34:59;90325.69;;;18.12;100.00
9935;BME280;5006;41.828;23.478;2022-08-19T03:36:08;90313.31;;;18.11;100.00
9935;BME280;5006;41.828;23.478;2022-08-19T03:37:15;90318.56;;;18.18;100.00
9935;BME280;5006;41.828;23.478;2022-08-19T03:38:20;90317.03;;;18.17;100.00
9935;BME280;5006;41.828;23.478;2022-08-19T03:39:26;90322.97;;;18.12;100.00
9935;BME280;5006;41.828;23.478;2022-08-19T03:40:31;90319.63;;;18.08;100.00
9935;BME280;5006;41.828;23.478;2022-08-19T03:41:38;90323.19;;;18.05;100.00
9935;BME280;5006;41.828;23.478;2022-08-19T03:42:44;90331.66;;;18.07;100.00
9935;BME280;5006;41.828;23.478;2022-08-19T03:43:52;90324.91;;;17.99;100.00
9935;BME280;5006;41.828;23.478;2022-08-19T03:44:57;90320.50;;;18.05;100.00
9935;BME280;5006;41.828;23.478;2022-08-19T03:46:05;90328.31;;;18.03;100.00
9935;BME280;5006;41.828;23.478;2022-08-19T03:47:11;90329.59;;;18.11;100.00
9935;BME280;5006;41.828;23.478;2022-08-19T03:48:20;90330.78;;;17.97;100.00
9935;BME280;5006;41.828;23.478;2022-08-19T03:49:29;90326.34;;;18.03;100.00
9935;BME280;5006;41.828;23.478;2022-08-19T03:50:38;90328.31;;;18.03;100.00
9935;BME280;5006;41.828;23.478;2022-08-19T03:51:43;90331.56;;;18.10;100.00
9935;BME280;5006;41.828;23.478;2022-08-19T03:52:49;90328.31;;;18.03;100.00
9935;BME280;5006;41.828;23.478;2022-08-19T03:53:55;90327.75;;;18.08;100.00
9935;BME280;5006;41.828;23.478;2022-08-19T03:55:02;90329.69;;;17.95;100.00
9935;BME280;5006;41.828;23.478;2022-08-19T03:56:08;90329.81;;;18.04;100.00
9935;BME280;5006;41.828;23.478;2022-08-19T03:57:15;90323.19;;;18.05;100.00
9935;BME280;5006;41.828;23.478;2022-08-19T03:58:22;90327.13;;;18.16;100.00
9935;BME280;5006;41.828;23.478;2022-08-19T03:59:29;90319.63;;;18.08;100.00
9935;BME280;5006;41.828;23.478;2022-08-19T04:00:35;90332.00;;;18.09;100.00
9935;BME280;5006;41.828;23.478;2022-08-19T04:01:41;90335.72;;;18.15;100.00
9935;BME280;5006;41.828;23.478;2022-08-19T04:02:47;90333.00;;;18.27;100.00
9935;BME280;5006;41.828;23.478;2022-08-19T04:03:53;90331.59;;;18.23;100.00
9935;BME280;5006;41.828;23.478;2022-08-19T04:04:58;90328.16;;;18.35;100.00
9935;BME280;5006;41.828;23.478;2022-08-19T04:06:10;90330.22;;;18.31;100.00
9935;BME280;5006;41.828;23.478;2022-08-19T04:07:15;90331.19;;;18.37;100.00
9935;BME280;5006;41.828;23.478;2022-08-19T04:08:22;90322.53;;;18.42;100.00
9935;BME280;5006;41.828;23.478;2022-08-19T04:09:26;90322.75;;;18.47;100.00
9935;BME280;5006;41.828;23.478;2022-08-19T04:10:35;90328.38;;;18.28;100.00
9935;BME280;5006;41.828;23.478;2022-08-19T04:11:42;90329.59;;;18.39;100.00
9935;BME280;5006;41.828;23.478;2022-08-19T04:12:48;90331.97;;;18.50;100.00
9935;BME280;5006;41.828;23.478;2022-08-19T04:13:55;90326.13;;;18.51;100.00
9935;BME280;5006;41.828;23.478;2022-08-19T04:15:01;90324.06;;;18.68;100.00
9935;BME280;5006;41.828;23.478;2022-08-19T04:16:07;90331.44;;;18.80;100.00
9935;BME280;5006;41.828;23.478;2022-08-19T04:17:13;90338.31;;;18.84;100.00
9935;BME280;5006;41.828;23.478;2022-08-19T04:18:19;90335.47;;;18.63;100.00
9935;BME280;5006;41.828;23.478;2022-08-19T04:19:25;90334.16;;;18.80;100.00
9935;BME280;5006;41.828;23.478;2022-08-19T04:20:31;90333.41;;;18.92;100.00
9935;BME280;5006;41.828;23.478;2022-08-19T04:21:36;90345.56;;;19.00;99.07
9935;BME280;5006;41.828;23.478;2022-08-19T04:22:42;90339.69;;;19.01;98.94
9935;BME280;5006;41.828;23.478;2022-08-19T04:23:47;90338.47;;;19.15;98.62
9935;BME280;5006;41.828;23.478;2022-08-19T04:24:54;90341.97;;;19.15;98.46
9935;BME280;5006;41.828;23.478;2022-08-19T04:25:58;90341.09;;;19.31;97.74
9935;BME280;5006;41.828;23.478;2022-08-19T04:27:05;90339.25;;;18.90;100.00
9935;BME280;5006;41.828;23.478;2022-08-19T04:28:12;90344.81;;;18.87;100.00
9935;BME280;5006;41.828;23.478;2022-08-19T04:29:20;90345.34;;;18.94;100.00
9935;BME280;5006;41.828;23.478;2022-08-19T04:30:29;90346.84;;;19.33;100.00
9935;BME280;5006;41.828;23.478;2022-08-19T04:31:34;90351.25;;;19.52;98.26
9935;BME280;5006;41.828;23.478;2022-08-19T04:32:41;90345.72;;;19.55;98.98
9935;BME280;5006;41.828;23.478;2022-08-19T04:33:48;90346.13;;;19.66;99.79
9935;BME280;5006;41.828;23.478;2022-08-19T04:34:54;90345.81;;;19.64;100.00
9935;BME280;5006;41.828;23.478;2022-08-19T04:36:00;90353.16;;;19.76;98.43
9935;BME280;5006;41.828;23.478;2022-08-19T04:37:06;90349.31;;;19.86;95.00
9935;BME280;5006;41.828;23.478;2022-08-19T04:38:17;90347.75;;;19.97;94.13
9935;BME280;5006;41.828;23.478;2022-08-19T04:39:25;90349.47;;;20.04;94.22
9935;BME280;5006;41.828;23.478;2022-08-19T04:40:52;90349.97;;;19.77;99.53
9935;BME280;5006;41.828;23.478;2022-08-19T04:42:15;90342.81;;;19.71;100.00
9935;BME280;5006;41.828;23.478;2022-08-19T04:43:40;90348.75;;;19.91;99.92
9935;BME280;5006;41.828;23.478;2022-08-19T04:44:45;90346.09;;;20.00;97.76
9935;BME280;5006;41.828;23.478;2022-08-19T04:45:51;90337.25;;;20.08;97.69
9935;BME280;5006;41.828;23.478;2022-08-19T04:46:57;90339.59;;;20.19;97.24
9935;BME280;5006;41.828;23.478;2022-08-19T04:48:03;90344.16;;;20.22;97.20
9935;BME280;5006;41.828;23.478;2022-08-19T04:49:09;90342.94;;;20.23;99.01
9935;BME280;5006;41.828;23.478;2022-08-19T04:50:15;90336.75;;;20.22;98.86
9935;BME280;5006;41.828;23.478;2022-08-19T04:51:23;90331.63;;;20.24;98.52
9935;BME280;5006;41.828;23.478;2022-08-19T04:52:30;90338.97;;;20.36;94.63
9935;BME280;5006;41.828;23.478;2022-08-19T04:53:37;90341.47;;;20.52;93.78
9935;BME280;5006;41.828;23.478;2022-08-19T04:54:43;90338.13;;;20.48;91.36
9935;BME280;5006;41.828;23.478;2022-08-19T04:55:48;90341.56;;;20.70;91.12
9935;BME280;5006;41.828;23.478;2022-08-19T04:56:53;90333.13;;;20.77;90.46
9935;BME280;5006;41.828;23.478;2022-08-19T04:57:58;90337.84;;;20.55;89.71
9935;BME280;5006;41.828;23.478;2022-08-19T04:59:04;90327.97;;;20.49;90.31
9935;BME280;5006;41.828;23.478;2022-08-19T05:00:11;90327.47;;;20.63;89.53
9935;BME280;5006;41.828;23.478;2022-08-19T05:01:19;90321.66;;;20.82;88.59
9935;BME280;5006;41.828;23.478;2022-08-19T05:02:24;90328.84;;;20.98;87.55
9935;BME280;5006;41.828;23.478;2022-08-19T05:03:30;90324.72;;;20.93;87.77
9935;BME280;5006;41.828;23.478;2022-08-19T05:04:38;90329.31;;;20.75;88.24
9935;BME280;5006;41.828;23.478;2022-08-19T05:05:45;90327.13;;;20.61;89.20
9935;BME280;5006;41.828;23.478;2022-08-19T05:06:53;90324.25;;;20.86;87.91
9935;BME280;5006;41.828;23.478;2022-08-19T05:07:58;90331.69;;;20.94;87.31
9935;BME280;5006;41.828;23.478;2022-08-19T05:09:04;90335.09;;;21.07;86.67
9935;BME280;5006;41.828;23.478;2022-08-19T05:10:11;90339.00;;;21.06;85.91
9935;BME280;5006;41.828;23.478;2022-08-19T05:12:42;90336.63;;;21.17;85.24
9935;BME280;5006;41.828;23.478;2022-08-19T05:13:48;90338.47;;;21.29;84.56
9935;BME280;5006;41.828;23.478;2022-08-19T05:14:53;90333.06;;;21.38;83.67
9935;BME280;5006;41.828;23.478;2022-08-19T05:16:00;90334.34;;;21.64;83.06
9935;BME280;5006;41.828;23.478;2022-08-19T05:17:06;90329.69;;;21.92;81.58
9935;BME280;5006;41.828;23.478;2022-08-19T05:18:11;90338.16;;;21.85;81.23
9935;BME280;5006;41.828;23.478;2022-08-19T05:19:43;90342.88;;;21.84;80.68
9935;BME280;5006;41.828;23.478;2022-08-19T05:21:07;90345.44;;;21.88;79.87
9935;BME280;5006;41.828;23.478;2022-08-19T05:22:30;90342.25;;;22.16;78.93
9935;BME280;5006;41.828;23.478;2022-08-19T05:23:39;90348.78;;;22.18;78.48
9935;BME280;5006;41.828;23.478;2022-08-19T05:24:46;90348.94;;;22.15;78.93
9935;BME280;5006;41.828;23.478;2022-08-19T05:25:52;90356.22;;;22.18;78.63
9935;BME280;5006;41.828;23.478;2022-08-19T05:26:57;90353.78;;;22.38;78.12
9935;BME280;5006;41.828;23.478;2022-08-19T05:28:03;90354.06;;;22.67;76.99
9935;BME280;5006;41.828;23.478;2022-08-19T05:29:09;90352.06;;;22.76;77.20
9935;BME280;5006;41.828;23.478;2022-08-19T05:30:16;90354.34;;;22.78;77.02
9935;BME280;5006;41.828;23.478;2022-08-19T05:31:22;90361.84;;;23.10;76.17
9935;BME280;5006;41.828;23.478;2022-08-19T05:32:28;90361.22;;;23.24;74.93
9935;BME280;5006;41.828;23.478;2022-08-19T05:33:33;90353.56;;;23.37;74.42
9935;BME280;5006;41.828;23.478;2022-08-19T05:34:38;90359.66;;;23.32;74.90
9935;BME280;5006;41.828;23.478;2022-08-19T05:35:45;90355.31;;;23.49;74.59
9935;BME280;5006;41.828;23.478;2022-08-19T05:36:52;90359.53;;;23.26;74.38
9935;BME280;5006;41.828;23.478;2022-08-19T05:38:01;90352.00;;;23.45;73.82
9935;BME280;5006;41.828;23.478;2022-08-19T05:39:10;90357.22;;;23.66;72.97
9935;BME280;5006;41.828;23.478;2022-08-19T05:40:17;90358.31;;;23.60;72.53
9935;BME280;5006;41.828;23.478;2022-08-19T05:41:22;90355.91;;;23.85;72.50
9935;BME280;5006;41.828;23.478;2022-08-19T05:42:34;90351.81;;;24.28;70.28
9935;BME280;5006;41.828;23.478;2022-08-19T05:43:40;90355.97;;;24.38;70.10
9935;BME280;5006;41.828;23.478;2022-08-19T05:44:45;90356.47;;;24.50;69.66
9935;BME280;5006;41.828;23.478;2022-08-19T05:45:53;90350.59;;;24.66;68.11
9935;BME280;5006;41.828;23.478;2022-08-19T05:46:59;90346.41;;;24.56;68.24
9935;BME280;5006;41.828;23.478;2022-08-19T05:48:06;90349.47;;;24.35;69.12
9935;BME280;5006;41.828;23.478;2022-08-19T05:49:11;90346.44;;;24.33;69.47
9935;BME280;5006;41.828;23.478;2022-08-19T05:50:17;90349.19;;;24.47;69.24
9935;BME280;5006;41.828;23.478;2022-08-19T05:51:23;90342.56;;;24.40;68.67
9935;BME280;5006;41.828;23.478;2022-08-19T05:52:29;90349.19;;;24.47;68.39
9935;BME280;5006;41.828;23.478;2022-08-19T05:53:34;90349.72;;;24.89;67.70
9935;BME280;5006;41.828;23.478;2022-08-19T05:54:40;90342.91;;;25.14;66.71
9935;BME280;5006;41.828;23.478;2022-08-19T05:55:46;90343.53;;;25.52;65.89
9935;BME280;5006;41.828;23.478;2022-08-19T05:56:52;90351.97;;;25.98;63.88
9935;BME280;5006;41.828;23.478;2022-08-19T05:57:58;90346.69;;;25.80;62.76
9935;BME280;5006;41.828;23.478;2022-08-19T05:59:07;90346.25;;;26.01;62.43